METAR Data
IDs: Format: Raw Decoded Include TAF

Data at: 0712 UTC 27 Feb 2020

METAR for:TNCM (St Maarten Intl, --, MN)
Text:TNCM 270700Z 06007KT 9999 FEW018 24/18 Q1016
Temperature: 24.0°C ( 75°F)
Dewpoint: 18.0°C ( 64°F) [RH = 69%]
Pressure (altimeter):30.00 inches Hg (1016.0 mb)
Winds:from the ENE (60 degrees) at 8 MPH (7 knots; 3.6 m/s)
Visibility:6 or more sm (10+ km)
Ceiling:at least 12,000 feet AGL
Clouds: few clouds at 1800 feet AGL